Kohat Weather



Kohat's Current Weather

Temprature 25o haze

haze

Rain: 0 %

Min Temprature25o
Max Temprature25o
Humidity50
Wind Speed3.1 m/h
Sun Rise06:20:38
Sun Set17:38:02
Current Time: 18-Oct-2019 16:11:16
Lat/Lon: 33.6, 71.44




Kohat's Geo Location



Kohat's Weather Forecast

Time Overall Temp Min Temp Max Temp Humidity Wind Speed Rain
18-Oct-2019 (Fri)
17:00:00 overcast clouds 23.390 22.440 23.390 41 2.84 m/h 0 %
20:00:00 light rain 17.700 16.990 17.700 59 5.75 m/h 113 %
23:00:00 light rain 17.990 17.518 17.990 51 1.56 m/h 56 %
19-Oct-2019 (Sat)
02:00:00 light rain 17.230 16.988 17.230 50 0.99 m/h 25 %
05:00:00 light rain 17.253 17.253 17.253 49 1.22 m/h 31 %
08:00:00 overcast clouds 20.311 20.311 20.311 39 1.12 m/h 0 %
11:00:00 overcast clouds 22.870 22.870 22.870 32 2.19 m/h 0 %
14:00:00 clear sky 24.126 24.126 24.126 28 1.84 m/h 0 %
17:00:00 clear sky 23.162 23.162 23.162 37 0.35 m/h 0 %
20:00:00 overcast clouds 19.148 19.148 19.148 42 1.83 m/h 0 %
23:00:00 broken clouds 17.907 17.907 17.907 46 1.05 m/h 0 %
20-Oct-2019 (Sun)
02:00:00 clear sky 17.067 17.067 17.067 46 1.19 m/h 0 %
05:00:00 clear sky 15.944 15.944 15.944 48 0.92 m/h 0 %
08:00:00 clear sky 20.832 20.832 20.832 35 0.81 m/h 0 %
11:00:00 few clouds 23.680 23.680 23.680 28 1.23 m/h 0 %
14:00:00 overcast clouds 24.972 24.972 24.972 25 1.71 m/h 0 %
17:00:00 broken clouds 23.618 23.618 23.618 32 2.56 m/h 0 %
20:00:00 scattered clouds 19.232 19.232 19.232 44 1.06 m/h 0 %
23:00:00 few clouds 17.967 17.967 17.967 46 1.14 m/h 0 %
21-Oct-2019 (Mon)
02:00:00 clear sky 16.850 16.850 16.850 48 0.91 m/h 0 %
05:00:00 clear sky 15.851 15.851 15.851 48 0.67 m/h 0 %
08:00:00 clear sky 20.639 20.639 20.639 37 0.6 m/h 0 %
11:00:00 clear sky 23.637 23.637 23.637 29 1.7 m/h 0 %
14:00:00 clear sky 25.255 25.255 25.255 25 2.53 m/h 0 %
17:00:00 clear sky 23.624 23.624 23.624 31 2.96 m/h 0 %
20:00:00 clear sky 18.964 18.964 18.964 46 0.25 m/h 0 %
23:00:00 clear sky 17.770 17.770 17.770 46 0.88 m/h 0 %
22-Oct-2019 (Tue)
02:00:00 clear sky 16.606 16.606 16.606 47 0.75 m/h 0 %
05:00:00 clear sky 15.749 15.749 15.749 46 1.13 m/h 0 %
08:00:00 clear sky 20.392 20.392 20.392 37 0.53 m/h 0 %
11:00:00 few clouds 23.449 23.449 23.449 28 1.14 m/h 0 %
14:00:00 broken clouds 25.009 25.009 25.009 23 2.59 m/h 0 %
17:00:00 overcast clouds 23.092 23.092 23.092 29 3.25 m/h 0 %
20:00:00 overcast clouds 19.250 19.250 19.250 39 1.03 m/h 0 %
23:00:00 broken clouds 18.509 18.509 18.509 38 1.45 m/h 0 %
23-Oct-2019 (Wed)
02:00:00 few clouds 16.716 16.716 16.716 45 1.26 m/h 0 %
05:00:00 few clouds 15.997 15.997 15.997 48 1.21 m/h 0 %
08:00:00 scattered clouds 19.579 19.579 19.579 41 1.57 m/h 0 %
11:00:00 scattered clouds 23.115 23.115 23.115 32 2.49 m/h 0 %
14:00:00 clear sky 24.269 24.269 24.269 28 3.67 m/h 0 %

Famous Cities (61)